sensor_id;sensor_type;location;lat;lon;timestamp;pressure;altitude;pressure_sealevel;temperature;humidity
43436;BME280;36399;51.444;-2.018;2024-01-30T00:02:10;101141.50;;;9.30;100.00
43436;BME280;36399;51.444;-2.018;2024-01-30T00:04:36;101135.41;;;9.31;100.00
43436;BME280;36399;51.444;-2.018;2024-01-30T00:07:02;101127.44;;;9.27;100.00
43436;BME280;36399;51.444;-2.018;2024-01-30T00:09:29;101130.81;;;9.23;100.00
43436;BME280;36399;51.444;-2.018;2024-01-30T00:11:55;101132.44;;;9.19;100.00
43436;BME280;36399;51.444;-2.018;2024-01-30T00:14:21;101131.38;;;9.12;100.00
43436;BME280;36399;51.444;-2.018;2024-01-30T00:16:47;101132.94;;;9.06;100.00
43436;BME280;36399;51.444;-2.018;2024-01-30T00:19:13;101138.75;;;8.96;100.00
43436;BME280;36399;51.444;-2.018;2024-01-30T00:21:38;101135.13;;;8.91;100.00
43436;BME280;36399;51.444;-2.018;2024-01-30T00:24:05;101129.81;;;8.89;100.00
43436;BME280;36399;51.444;-2.018;2024-01-30T00:26:31;101111.25;;;8.81;100.00
43436;BME280;36399;51.444;-2.018;2024-01-30T00:28:57;101111.16;;;8.78;100.00
43436;BME280;36399;51.444;-2.018;2024-01-30T00:31:23;101134.72;;;8.78;100.00
43436;BME280;36399;51.444;-2.018;2024-01-30T00:33:49;101134.66;;;8.77;100.00
43436;BME280;36399;51.444;-2.018;2024-01-30T00:36:15;101153.78;;;8.74;100.00
43436;BME280;36399;51.444;-2.018;2024-01-30T00:38:40;101161.63;;;8.74;100.00
43436;BME280;36399;51.444;-2.018;2024-01-30T00:41:08;101152.16;;;8.78;100.00
43436;BME280;36399;51.444;-2.018;2024-01-30T00:43:34;101153.69;;;8.71;100.00
43436;BME280;36399;51.444;-2.018;2024-01-30T00:46:00;101149.47;;;8.76;100.00
43436;BME280;36399;51.444;-2.018;2024-01-30T00:48:26;101168.56;;;8.72;100.00
43436;BME280;36399;51.444;-2.018;2024-01-30T00:50:52;101152.81;;;8.71;100.00
43436;BME280;36399;51.444;-2.018;2024-01-30T00:53:18;101158.94;;;8.71;100.00
43436;BME280;36399;51.444;-2.018;2024-01-30T00:55:44;101153.72;;;8.73;100.00
43436;BME280;36399;51.444;-2.018;2024-01-30T00:58:10;101149.38;;;8.73;100.00
43436;BME280;36399;51.444;-2.018;2024-01-30T01:00:36;101150.31;;;8.75;100.00
43436;BME280;36399;51.444;-2.018;2024-01-30T01:03:03;101146.06;;;8.79;100.00
43436;BME280;36399;51.444;-2.018;2024-01-30T01:05:29;101132.88;;;8.76;100.00
43436;BME280;36399;51.444;-2.018;2024-01-30T01:07:55;101154.63;;;8.73;100.00
43436;BME280;36399;51.444;-2.018;2024-01-30T01:10:21;101142.28;;;8.69;100.00
43436;BME280;36399;51.444;-2.018;2024-01-30T01:12:48;101144.06;;;8.70;100.00
43436;BME280;36399;51.444;-2.018;2024-01-30T01:15:14;101131.72;;;8.66;100.00
43436;BME280;36399;51.444;-2.018;2024-01-30T01:17:40;101147.44;;;8.66;100.00
43436;BME280;36399;51.444;-2.018;2024-01-30T01:20:06;101134.25;;;8.63;100.00
43436;BME280;36399;51.444;-2.018;2024-01-30T01:22:33;101135.19;;;8.65;100.00
43436;BME280;36399;51.444;-2.018;2024-01-30T01:25:00;101145.75;;;8.68;100.00
43436;BME280;36399;51.444;-2.018;2024-01-30T01:27:27;101134.34;;;8.66;100.00
43436;BME280;36399;51.444;-2.018;2024-01-30T01:29:53;101155.31;;;8.68;100.00
43436;BME280;36399;51.444;-2.018;2024-01-30T01:32:19;101153.50;;;8.65;100.00
43436;BME280;36399;51.444;-2.018;2024-01-30T01:34:45;101157.09;;;8.69;100.00
43436;BME280;36399;51.444;-2.018;2024-01-30T01:37:11;101155.41;;;8.71;100.00
43436;BME280;36399;51.444;-2.018;2024-01-30T01:39:37;101152.84;;;8.72;100.00
43436;BME280;36399;51.444;-2.018;2024-01-30T01:42:03;101147.53;;;8.69;100.00
43436;BME280;36399;51.444;-2.018;2024-01-30T01:44:29;101154.53;;;8.70;100.00
43436;BME280;36399;51.444;-2.018;2024-01-30T01:46:56;101155.41;;;8.71;100.00
43436;BME280;36399;51.444;-2.018;2024-01-30T01:49:25;101143.88;;;8.64;100.00
43436;BME280;36399;51.444;-2.018;2024-01-30T01:51:54;101145.47;;;8.59;100.00
43436;BME280;36399;51.444;-2.018;2024-01-30T01:54:22;101143.69;;;8.58;100.00
43436;BME280;36399;51.444;-2.018;2024-01-30T01:56:50;101152.97;;;8.48;100.00
43436;BME280;36399;51.444;-2.018;2024-01-30T01:59:17;101152.91;;;8.47;100.00
43436;BME280;36399;51.444;-2.018;2024-01-30T02:01:44;101148.34;;;8.40;100.00
43436;BME280;36399;51.444;-2.018;2024-01-30T02:04:11;101142.63;;;8.28;100.00
43436;BME280;36399;51.444;-2.018;2024-01-30T02:06:37;101159.50;;;8.10;100.00
43436;BME280;36399;51.444;-2.018;2024-01-30T02:09:04;101162.22;;;7.88;100.00
43436;BME280;36399;51.444;-2.018;2024-01-30T02:11:30;101169.41;;;7.70;100.00
43436;BME280;36399;51.444;-2.018;2024-01-30T02:14:02;101158.50;;;7.57;100.00
43436;BME280;36399;51.444;-2.018;2024-01-30T02:16:28;101150.25;;;7.45;100.00
43436;BME280;36399;51.444;-2.018;2024-01-30T02:18:54;101176.16;;;7.39;100.00
43436;BME280;36399;51.444;-2.018;2024-01-30T02:21:20;101177.91;;;7.40;100.00
43436;BME280;36399;51.444;-2.018;2024-01-30T02:23:49;101185.59;;;7.36;100.00
43436;BME280;36399;51.444;-2.018;2024-01-30T02:26:16;101186.25;;;7.30;100.00
43436;BME280;36399;51.444;-2.018;2024-01-30T02:28:42;101198.22;;;7.25;100.00
43436;BME280;36399;51.444;-2.018;2024-01-30T02:31:08;101207.72;;;7.23;100.00
43436;BME280;36399;51.444;-2.018;2024-01-30T02:33:34;101215.66;;;7.26;100.00
43436;BME280;36399;51.444;-2.018;2024-01-30T02:36:00;101212.00;;;7.21;100.00
43436;BME280;36399;51.444;-2.018;2024-01-30T02:38:26;101229.31;;;7.19;100.00
43436;BME280;36399;51.444;-2.018;2024-01-30T02:40:53;101243.88;;;7.12;100.00
43436;BME280;36399;51.444;-2.018;2024-01-30T02:43:19;101241.19;;;7.11;100.00
43436;BME280;36399;51.444;-2.018;2024-01-30T02:45:45;101247.19;;;7.08;100.00
43436;BME280;36399;51.444;-2.018;2024-01-30T02:48:11;101252.28;;;7.05;100.00
43436;BME280;36399;51.444;-2.018;2024-01-30T02:50:37;101254.72;;;7.01;100.00
43436;BME280;36399;51.444;-2.018;2024-01-30T02:53:03;101260.78;;;7.00;100.00
43436;BME280;36399;51.444;-2.018;2024-01-30T02:55:29;101268.72;;;7.03;100.00
43436;BME280;36399;51.444;-2.018;2024-01-30T02:57:55;101271.91;;;6.95;100.00
43436;BME280;36399;51.444;-2.018;2024-01-30T03:00:21;101275.47;;;6.97;100.00
43436;BME280;36399;51.444;-2.018;2024-01-30T03:02:47;101297.13;;;6.95;100.00
43436;BME280;36399;51.444;-2.018;2024-01-30T03:05:13;101290.78;;;6.88;100.00
43436;BME280;36399;51.444;-2.018;2024-01-30T03:07:39;101302.94;;;6.88;100.00
43436;BME280;36399;51.444;-2.018;2024-01-30T03:10:05;101298.53;;;6.87;100.00
43436;BME280;36399;51.444;-2.018;2024-01-30T03:12:32;101300.06;;;6.82;100.00
43436;BME280;36399;51.444;-2.018;2024-01-30T03:14:58;101306.06;;;6.79;100.00
43436;BME280;36399;51.444;-2.018;2024-01-30T03:17:24;101308.72;;;6.81;100.00
43436;BME280;36399;51.444;-2.018;2024-01-30T03:19:50;101314.84;;;6.81;100.00
43436;BME280;36399;51.444;-2.018;2024-01-30T03:22:17;101321.03;;;6.83;100.00
43436;BME280;36399;51.444;-2.018;2024-01-30T03:24:43;101318.34;;;6.82;100.00
43436;BME280;36399;51.444;-2.018;2024-01-30T03:27:09;101330.63;;;6.84;100.00
43436;BME280;36399;51.444;-2.018;2024-01-30T03:29:35;101325.53;;;6.87;100.00
43436;BME280;36399;51.444;-2.018;2024-01-30T03:32:01;101342.09;;;6.88;100.00
43436;BME280;36399;51.444;-2.018;2024-01-30T03:34:27;101338.53;;;6.86;100.00
43436;BME280;36399;51.444;-2.018;2024-01-30T03:36:53;101339.41;;;6.86;100.00
43436;BME280;36399;51.444;-2.018;2024-01-30T03:39:19;101344.63;;;6.86;100.00
43436;BME280;36399;51.444;-2.018;2024-01-30T03:41:45;101349.72;;;6.83;100.00
43436;BME280;36399;51.444;-2.018;2024-01-30T03:44:11;101361.19;;;6.87;100.00
43436;BME280;36399;51.444;-2.018;2024-01-30T03:46:37;101363.72;;;6.85;100.00
43436;BME280;36399;51.444;-2.018;2024-01-30T03:49:03;101358.50;;;6.85;100.00
43436;BME280;36399;51.444;-2.018;2024-01-30T03:51:29;101360.03;;;6.80;100.00
43436;BME280;36399;51.444;-2.018;2024-01-30T03:53:54;101372.13;;;6.78;100.00
43436;BME280;36399;51.444;-2.018;2024-01-30T03:56:20;101373.75;;;6.76;100.00
43436;BME280;36399;51.444;-2.018;2024-01-30T03:58:46;101384.19;;;6.76;100.00
43436;BME280;36399;51.444;-2.018;2024-01-30T04:01:13;101389.28;;;6.73;100.00
43436;BME280;36399;51.444;-2.018;2024-01-30T04:03:39;101385.72;;;6.71;100.00
43436;BME280;36399;51.444;-2.018;2024-01-30T04:06:05;101386.47;;;6.69;100.00
43436;BME280;36399;51.444;-2.018;2024-01-30T04:08:31;101385.59;;;6.68;100.00
43436;BME280;36399;51.444;-2.018;2024-01-30T04:10:58;101395.88;;;6.65;100.00
43436;BME280;36399;51.444;-2.018;2024-01-30T04:13:24;101391.44;;;6.62;100.00
43436;BME280;36399;51.444;-2.018;2024-01-30T04:15:50;101389.66;;;6.61;100.00
43436;BME280;36399;51.444;-2.018;2024-01-30T04:18:16;101400.09;;;6.61;100.00
43436;BME280;36399;51.444;-2.018;2024-01-30T04:20:42;101403.59;;;6.62;100.00
43436;BME280;36399;51.444;-2.018;2024-01-30T04:23:07;101405.22;;;6.60;100.00
43436;BME280;36399;51.444;-2.018;2024-01-30T04:25:33;101410.44;;;6.60;100.00
43436;BME280;36399;51.444;-2.018;2024-01-30T04:27:59;101412.16;;;6.59;100.00
43436;BME280;36399;51.444;-2.018;2024-01-30T04:30:25;101407.91;;;6.61;100.00
43436;BME280;36399;51.444;-2.018;2024-01-30T04:32:51;101405.94;;;6.56;100.00
43436;BME280;36399;51.444;-2.018;2024-01-30T04:35:17;101405.94;;;6.56;100.00
43436;BME280;36399;51.444;-2.018;2024-01-30T04:37:43;101414.94;;;6.43;100.00
43436;BME280;36399;51.444;-2.018;2024-01-30T04:40:09;101416.25;;;6.33;100.00
43436;BME280;36399;51.444;-2.018;2024-01-30T04:42:35;101420.22;;;6.25;100.00
43436;BME280;36399;51.444;-2.018;2024-01-30T04:45:01;101419.78;;;6.16;100.00
43436;BME280;36399;51.444;-2.018;2024-01-30T04:47:28;101433.34;;;6.09;100.00
43436;BME280;36399;51.444;-2.018;2024-01-30T04:49:54;101445.56;;;6.10;100.00
43436;BME280;36399;51.444;-2.018;2024-01-30T04:52:20;101451.53;;;6.08;100.00
43436;BME280;36399;51.444;-2.018;2024-01-30T04:54:46;101455.03;;;6.08;100.00
43436;BME280;36399;51.444;-2.018;2024-01-30T04:57:12;101473.34;;;6.10;100.00
43436;BME280;36399;51.444;-2.018;2024-01-30T04:59:38;101475.94;;;6.10;100.00
43436;BME280;36399;51.444;-2.018;2024-01-30T05:02:04;101469.56;;;6.03;100.00
43436;BME280;36399;51.444;-2.018;2024-01-30T05:04:29;101483.28;;;5.99;100.00
43436;BME280;36399;51.444;-2.018;2024-01-30T05:06:55;101476.13;;;5.95;100.00
43436;BME280;36399;51.444;-2.018;2024-01-30T05:09:21;101484.91;;;5.97;100.00
43436;BME280;36399;51.444;-2.018;2024-01-30T05:11:47;101502.03;;;5.92;100.00
43436;BME280;36399;51.444;-2.018;2024-01-30T05:14:13;101492.38;;;5.89;100.00
43436;BME280;36399;51.444;-2.018;2024-01-30T05:16:41;101500.81;;;5.85;100.00
43436;BME280;36399;51.444;-2.018;2024-01-30T05:19:07;101509.53;;;5.86;100.00
43436;BME280;36399;51.444;-2.018;2024-01-30T05:21:33;101510.59;;;5.89;100.00
43436;BME280;36399;51.444;-2.018;2024-01-30T05:23:59;101519.41;;;5.91;100.00
43436;BME280;36399;51.444;-2.018;2024-01-30T05:26:25;101520.44;;;5.95;100.00
43436;BME280;36399;51.444;-2.018;2024-01-30T05:28:51;101530.47;;;6.05;100.00
43436;BME280;36399;51.444;-2.018;2024-01-30T05:31:17;101545.66;;;6.14;100.00
43436;BME280;36399;51.444;-2.018;2024-01-30T05:33:43;101541.34;;;6.14;100.00
43436;BME280;36399;51.444;-2.018;2024-01-30T05:36:11;101553.63;;;6.17;100.00
43436;BME280;36399;51.444;-2.018;2024-01-30T05:38:37;101558.09;;;6.19;100.00
43436;BME280;36399;51.444;-2.018;2024-01-30T05:41:04;101567.13;;;6.26;100.00
43436;BME280;36399;51.444;-2.018;2024-01-30T05:43:30;101555.81;;;6.25;100.00
43436;BME280;36399;51.444;-2.018;2024-01-30T05:45:55;101565.50;;;6.28;100.00
43436;BME280;36399;51.444;-2.018;2024-01-30T05:48:21;101567.13;;;6.26;100.00
43436;BME280;36399;51.444;-2.018;2024-01-30T05:50:47;101571.59;;;6.28;100.00
43436;BME280;36399;51.444;-2.018;2024-01-30T05:53:13;101572.34;;;6.26;100.00
43436;BME280;36399;51.444;-2.018;2024-01-30T05:55:39;101571.88;;;6.35;100.00
43436;BME280;36399;51.444;-2.018;2024-01-30T05:58:05;101578.75;;;6.32;100.00
43436;BME280;36399;51.444;-2.018;2024-01-30T06:00:31;101586.78;;;6.37;100.00
43436;BME280;36399;51.444;-2.018;2024-01-30T06:02:57;101592.00;;;6.37;100.00
43436;BME280;36399;51.444;-2.018;2024-01-30T06:05:23;101592.81;;;6.36;100.00
43436;BME280;36399;51.444;-2.018;2024-01-30T06:07:49;101599.09;;;6.40;100.00
43436;BME280;36399;51.444;-2.018;2024-01-30T06:10:15;101610.19;;;6.36;100.00
43436;BME280;36399;51.444;-2.018;2024-01-30T06:12:41;101621.59;;;6.38;100.00
43436;BME280;36399;51.444;-2.018;2024-01-30T06:15:07;101623.22;;;6.36;100.00
43436;BME280;36399;51.444;-2.018;2024-01-30T06:17:33;101625.69;;;6.32;100.00
43436;BME280;36399;51.444;-2.018;2024-01-30T06:19:59;101625.84;;;6.36;100.00
43436;BME280;36399;51.444;-2.018;2024-01-30T06:22:25;101628.22;;;6.31;100.00
43436;BME280;36399;51.444;-2.018;2024-01-30T06:24:53;101640.44;;;6.32;100.00
43436;BME280;36399;51.444;-2.018;2024-01-30T06:27:20;101637.91;;;6.33;100.00
43436;BME280;36399;51.444;-2.018;2024-01-30T06:29:46;101648.19;;;6.30;100.00
43436;BME280;36399;51.444;-2.018;2024-01-30T06:32:12;101641.47;;;6.36;100.00
43436;BME280;36399;51.444;-2.018;2024-01-30T06:34:38;101652.50;;;6.30;100.00
43436;BME280;36399;51.444;-2.018;2024-01-30T06:37:05;101657.59;;;6.27;100.00
43436;BME280;36399;51.444;-2.018;2024-01-30T06:39:31;101667.13;;;6.26;100.00
43436;BME280;36399;51.444;-2.018;2024-01-30T06:41:57;101666.28;;;6.27;100.00
43436;BME280;36399;51.444;-2.018;2024-01-30T06:44:23;101677.63;;;6.28;100.00
43436;BME280;36399;51.444;-2.018;2024-01-30T06:46:49;101673.31;;;6.28;100.00
43436;BME280;36399;51.444;-2.018;2024-01-30T06:49:15;101674.13;;;6.27;100.00
43436;BME280;36399;51.444;-2.018;2024-01-30T06:51:41;101684.56;;;6.27;100.00
43436;BME280;36399;51.444;-2.018;2024-01-30T06:54:07;101693.19;;;6.26;100.00
43436;BME280;36399;51.444;-2.018;2024-01-30T06:56:33;101689.63;;;6.24;100.00
43436;BME280;36399;51.444;-2.018;2024-01-30T06:58:59;101686.19;;;6.25;100.00
43436;BME280;36399;51.444;-2.018;2024-01-30T07:01:30;101698.41;;;6.26;100.00
43436;BME280;36399;51.444;-2.018;2024-01-30T07:03:57;101692.38;;;6.27;100.00
43436;BME280;36399;51.444;-2.018;2024-01-30T07:06:24;101709.41;;;6.21;100.00
43436;BME280;36399;51.444;-2.018;2024-01-30T07:08:50;101703.28;;;6.20;100.00
43436;BME280;36399;51.444;-2.018;2024-01-30T07:11:22;101723.31;;;6.21;100.00
43436;BME280;36399;51.444;-2.018;2024-01-30T07:13:52;101724.16;;;6.20;100.00
43436;BME280;36399;51.444;-2.018;2024-01-30T07:16:18;101732.63;;;6.16;100.00
43436;BME280;36399;51.444;-2.018;2024-01-30T07:18:44;101729.94;;;6.15;100.00
43436;BME280;36399;51.444;-2.018;2024-01-30T07:21:10;101729.88;;;6.13;100.00
43436;BME280;36399;51.444;-2.018;2024-01-30T07:23:36;101739.56;;;6.16;100.00
43436;BME280;36399;51.444;-2.018;2024-01-30T07:26:05;101743.81;;;6.14;100.00
43436;BME280;36399;51.444;-2.018;2024-01-30T07:28:32;101744.69;;;6.14;100.00
43436;BME280;36399;51.444;-2.018;2024-01-30T07:30:59;101744.19;;;6.21;100.00
43436;BME280;36399;51.444;-2.018;2024-01-30T07:33:25;101752.81;;;6.20;100.00
43436;BME280;36399;51.444;-2.018;2024-01-30T07:35:52;101752.75;;;6.19;100.00
43436;BME280;36399;51.444;-2.018;2024-01-30T07:38:19;101755.59;;;6.23;100.00
43436;BME280;36399;51.444;-2.018;2024-01-30T07:40:45;101772.06;;;6.22;100.00
43436;BME280;36399;51.444;-2.018;2024-01-30T07:43:11;101775.66;;;6.24;100.00
43436;BME280;36399;51.444;-2.018;2024-01-30T07:45:37;101781.84;;;6.26;100.00
43436;BME280;36399;51.444;-2.018;2024-01-30T07:48:06;101790.00;;;6.32;100.00
43436;BME280;36399;51.444;-2.018;2024-01-30T07:50:32;101790.50;;;6.25;100.00
43436;BME280;36399;51.444;-2.018;2024-01-30T07:52:59;101793.91;;;6.24;100.00
43436;BME280;36399;51.444;-2.018;2024-01-30T07:55:26;101797.50;;;6.26;100.00
43436;BME280;36399;51.444;-2.018;2024-01-30T07:57:55;101799.13;;;6.24;100.00
43436;BME280;36399;51.444;-2.018;2024-01-30T08:00:21;101795.72;;;6.25;100.00
43436;BME280;36399;51.444;-2.018;2024-01-30T08:02:47;101805.94;;;6.22;100.00
43436;BME280;36399;51.444;-2.018;2024-01-30T08:05:13;101798.06;;;6.21;100.00
43436;BME280;36399;51.444;-2.018;2024-01-30T08:07:43;101810.13;;;6.19;100.00
43436;BME280;36399;51.444;-2.018;2024-01-30T08:10:11;101806.22;;;6.11;100.00
43436;BME280;36399;51.444;-2.018;2024-01-30T08:12:37;101814.84;;;6.10;100.00
43436;BME280;36399;51.444;-2.018;2024-01-30T08:15:04;101805.47;;;6.13;100.00
43436;BME280;36399;51.444;-2.018;2024-01-30T08:17:30;101819.16;;;6.09;100.00
43436;BME280;36399;51.444;-2.018;2024-01-30T08:19:57;101819.50;;;6.15;100.00
43436;BME280;36399;51.444;-2.018;2024-01-30T08:22:23;101809.97;;;6.16;100.00
43436;BME280;36399;51.444;-2.018;2024-01-30T08:24:49;101818.59;;;6.15;100.00
43436;BME280;36399;51.444;-2.018;2024-01-30T08:27:14;101819.50;;;6.15;100.00
43436;BME280;36399;51.444;-2.018;2024-01-30T08:29:40;101826.50;;;6.16;100.00
43436;BME280;36399;51.444;-2.018;2024-01-30T08:32:06;101829.75;;;6.12;100.00
43436;BME280;36399;51.444;-2.018;2024-01-30T08:34:33;101841.00;;;6.11;100.00
43436;BME280;36399;51.444;-2.018;2024-01-30T08:36:59;101841.00;;;6.11;100.00
43436;BME280;36399;51.444;-2.018;2024-01-30T08:39:25;101842.13;;;6.16;100.00
43436;BME280;36399;51.444;-2.018;2024-01-30T08:41:51;101844.50;;;6.12;100.00
43436;BME280;36399;51.444;-2.018;2024-01-30T08:44:17;101843.78;;;6.14;100.00
43436;BME280;36399;51.444;-2.018;2024-01-30T08:46:46;101853.88;;;6.08;100.00
43436;BME280;36399;51.444;-2.018;2024-01-30T08:49:13;101858.94;;;6.05;100.00
43436;BME280;36399;51.444;-2.018;2024-01-30T08:51:40;101864.22;;;6.07;100.00
43436;BME280;36399;51.444;-2.018;2024-01-30T08:54:06;101861.38;;;6.18;100.00
43436;BME280;36399;51.444;-2.018;2024-01-30T08:56:31;101870.75;;;6.15;100.00
43436;BME280;36399;51.444;-2.018;2024-01-30T08:58:57;101885.72;;;6.19;100.00
43436;BME280;36399;51.444;-2.018;2024-01-30T09:01:24;101884.38;;;6.25;100.00
43436;BME280;36399;51.444;-2.018;2024-01-30T09:03:50;101888.13;;;6.30;100.00
43436;BME280;36399;51.444;-2.018;2024-01-30T09:06:16;101893.34;;;6.30;100.00
43436;BME280;36399;51.444;-2.018;2024-01-30T09:08:42;101902.28;;;6.36;100.00
43436;BME280;36399;51.444;-2.018;2024-01-30T09:11:13;101908.66;;;6.41;100.00
43436;BME280;36399;51.444;-2.018;2024-01-30T09:13:39;101915.81;;;6.45;100.00
43436;BME280;36399;51.444;-2.018;2024-01-30T09:16:06;101925.44;;;6.46;100.00
43436;BME280;36399;51.444;-2.018;2024-01-30T09:18:32;101923.97;;;6.51;100.00
43436;BME280;36399;51.444;-2.018;2024-01-30T09:20:58;101936.00;;;6.65;100.00
43436;BME280;36399;51.444;-2.018;2024-01-30T09:23:24;101933.56;;;6.68;100.00
43436;BME280;36399;51.444;-2.018;2024-01-30T09:25:50;101940.25;;;6.79;100.00
43436;BME280;36399;51.444;-2.018;2024-01-30T09:28:17;101936.31;;;6.87;100.00
43436;BME280;36399;51.444;-2.018;2024-01-30T09:30:43;101935.59;;;6.90;100.00
43436;BME280;36399;51.444;-2.018;2024-01-30T09:33:09;101943.34;;;6.88;100.00
43436;BME280;36399;51.444;-2.018;2024-01-30T09:35:38;101948.31;;;6.84;100.00
43436;BME280;36399;51.444;-2.018;2024-01-30T09:38:04;101951.81;;;6.84;100.00
43436;BME280;36399;51.444;-2.018;2024-01-30T09:40:30;101955.09;;;6.80;100.00
43436;BME280;36399;51.444;-2.018;2024-01-30T09:42:58;101968.88;;;6.78;100.00
43436;BME280;36399;51.444;-2.018;2024-01-30T09:45:26;101970.47;;;6.76;100.00
43436;BME280;36399;51.444;-2.018;2024-01-30T09:47:52;101972.19;;;6.75;100.00
43436;BME280;36399;51.444;-2.018;2024-01-30T09:50:19;101980.16;;;6.77;100.00
43436;BME280;36399;51.444;-2.018;2024-01-30T09:52:55;101977.41;;;6.75;100.00
43436;BME280;36399;51.444;-2.018;2024-01-30T09:55:31;101989.66;;;6.76;100.00
43436;BME280;36399;51.444;-2.018;2024-01-30T09:57:58;101990.00;;;6.82;100.00
43436;BME280;36399;51.444;-2.018;2024-01-30T10:00:25;101986.06;;;6.74;100.00
43436;BME280;36399;51.444;-2.018;2024-01-30T10:02:53;102003.63;;;6.77;100.00
43436;BME280;36399;51.444;-2.018;2024-01-30T10:05:19;102013.16;;;6.76;100.00
43436;BME280;36399;51.444;-2.018;2024-01-30T10:07:53;102027.75;;;6.73;100.00
43436;BME280;36399;51.444;-2.018;2024-01-30T10:10:23;102028.63;;;6.73;100.00
43436;BME280;36399;51.444;-2.018;2024-01-30T10:12:49;102030.50;;;6.76;100.00
43436;BME280;36399;51.444;-2.018;2024-01-30T10:15:17;102036.31;;;6.70;100.00
43436;BME280;36399;51.444;-2.018;2024-01-30T10:17:44;102041.38;;;6.83;100.00
43436;BME280;36399;51.444;-2.018;2024-01-30T10:20:11;102041.22;;;6.80;100.00
43436;BME280;36399;51.444;-2.018;2024-01-30T10:22:37;102054.81;;;6.75;100.00
43436;BME280;36399;51.444;-2.018;2024-01-30T10:25:03;102051.50;;;6.77;100.00
43436;BME280;36399;51.444;-2.018;2024-01-30T10:27:30;102050.69;;;6.78;100.00
43436;BME280;36399;51.444;-2.018;2024-01-30T10:29:58;102056.25;;;6.84;100.00
43436;BME280;36399;51.444;-2.018;2024-01-30T10:32:25;102064.31;;;6.89;100.00
43436;BME280;36399;51.444;-2.018;2024-01-30T10:34:51;102057.06;;;6.83;100.00
43436;BME280;36399;51.444;-2.018;2024-01-30T10:37:18;102058.69;;;6.81;100.00
43436;BME280;36399;51.444;-2.018;2024-01-30T10:39:46;102069.13;;;6.97;100.00
43436;BME280;36399;51.444;-2.018;2024-01-30T10:42:14;102075.81;;;6.92;100.00
43436;BME280;36399;51.444;-2.018;2024-01-30T10:47:29;102077.59;;;6.93;100.00
43436;BME280;36399;51.444;-2.018;2024-01-30T10:49:56;102085.03;;;7.02;100.00
43436;BME280;36399;51.444;-2.018;2024-01-30T10:52:25;102090.66;;;7.10;100.00
43436;BME280;36399;51.444;-2.018;2024-01-30T10:54:53;102098.00;;;7.17;100.00
43436;BME280;36399;51.444;-2.018;2024-01-30T10:57:21;102101.41;;;7.16;100.00
43436;BME280;36399;51.444;-2.018;2024-01-30T10:59:49;102102.47;;;7.19;100.00
43436;BME280;36399;51.444;-2.018;2024-01-30T11:02:15;102105.59;;;7.12;100.00
43436;BME280;36399;51.444;-2.018;2024-01-30T11:04:43;102104.53;;;7.09;100.00
43436;BME280;36399;51.444;-2.018;2024-01-30T11:07:24;102109.81;;;7.10;100.00
43436;BME280;36399;51.444;-2.018;2024-01-30T11:09:51;102103.38;;;7.04;100.00
43436;BME280;36399;51.444;-2.018;2024-01-30T11:12:25;102110.06;;;7.15;100.00
43436;BME280;36399;51.444;-2.018;2024-01-30T11:15:12;102113.66;;;7.17;100.00
43436;BME280;36399;51.444;-2.018;2024-01-30T11:17:50;102112.50;;;7.28;100.00
43436;BME280;36399;51.444;-2.018;2024-01-30T11:20:25;102114.63;;;7.19;100.00
43436;BME280;36399;51.444;-2.018;2024-01-30T11:22:53;102121.34;;;7.30;100.00
43436;BME280;36399;51.444;-2.018;2024-01-30T11:25:22;102120.94;;;7.39;100.00
43436;BME280;36399;51.444;-2.018;2024-01-30T11:27:53;102113.56;;;7.48;100.00
43436;BME280;36399;51.444;-2.018;2024-01-30T11:30:29;102103.34;;;7.52;100.00
43436;BME280;36399;51.444;-2.018;2024-01-30T11:33:06;102103.03;;;7.46;100.00
43436;BME280;36399;51.444;-2.018;2024-01-30T11:35:36;102101.25;;;7.45;100.00
43436;BME280;36399;51.444;-2.018;2024-01-30T11:38:03;102110.16;;;7.33;100.00
43436;BME280;36399;51.444;-2.018;2024-01-30T11:40:30;102116.25;;;7.49;100.00
43436;BME280;36399;51.444;-2.018;2024-01-30T11:43:01;102118.97;;;7.35;100.00
43436;BME280;36399;51.444;-2.018;2024-01-30T11:45:27;102122.41;;;7.34;100.00
43436;BME280;36399;51.444;-2.018;2024-01-30T11:47:53;102121.00;;;7.24;100.00
43436;BME280;36399;51.444;-2.018;2024-01-30T11:50:20;102118.81;;;7.15;100.00
43436;BME280;36399;51.444;-2.018;2024-01-30T11:52:47;102117.81;;;7.13;100.00
43436;BME280;36399;51.444;-2.018;2024-01-30T11:55:14;102118.97;;;7.18;100.00
43436;BME280;36399;51.444;-2.018;2024-01-30T11:57:40;102115.22;;;7.13;100.00
43436;BME280;36399;51.444;-2.018;2024-01-30T12:00:14;102118.72;;;7.14;100.00
43436;BME280;36399;51.444;-2.018;2024-01-30T12:02:41;102110.81;;;7.12;100.00
43436;BME280;36399;51.444;-2.018;2024-01-30T12:05:07;102124.59;;;7.10;100.00
43436;BME280;36399;51.444;-2.018;2024-01-30T12:07:33;102123.69;;;7.25;100.00
43436;BME280;36399;51.444;-2.018;2024-01-30T12:10:00;102118.56;;;7.11;100.00
43436;BME280;36399;51.444;-2.018;2024-01-30T12:12:27;102129.00;;;7.11;100.00
43436;BME280;36399;51.444;-2.018;2024-01-30T12:14:53;102131.38;;;7.06;100.00
43436;BME280;36399;51.444;-2.018;2024-01-30T12:17:29;102130.97;;;7.15;100.00
43436;BME280;36399;51.444;-2.018;2024-01-30T12:20:06;102136.00;;;7.28;100.00
43436;BME280;36399;51.444;-2.018;2024-01-30T12:22:43;102134.56;;;7.17;100.00
43436;BME280;36399;51.444;-2.018;2024-01-30T12:25:14;102131.38;;;7.22;100.00
43436;BME280;36399;51.444;-2.018;2024-01-30T12:27:47;102147.69;;;7.18;100.00
43436;BME280;36399;51.444;-2.018;2024-01-30T12:30:18;102144.44;;;7.22;100.00
43436;BME280;36399;51.444;-2.018;2024-01-30T12:32:46;102140.53;;;7.31;100.00
43436;BME280;36399;51.444;-2.018;2024-01-30T12:35:16;102137.19;;;7.33;100.00
43436;BME280;36399;51.444;-2.018;2024-01-30T12:37:43;102133.09;;;7.38;100.00
43436;BME280;36399;51.444;-2.018;2024-01-30T12:40:10;102132.31;;;7.57;100.00
43436;BME280;36399;51.444;-2.018;2024-01-30T12:42:37;102137.97;;;7.48;100.00